Other Surface Observations
Issued by NWS Great Falls, MT

Home | Current Version | Previous Version | Text Only | Print | Product List | Glossary On
Versions: 1 2 3 4 5 6 7 8 9 10 11 12 13 14 15 16 17 18 19 20 21 22 23 24 25 26 27 28 29 30 31 32 33 34 35 36 37 38 39 40 41 42 43 44 45 46 47 48 49 50
205
SXUS55 KTFX 101207
OSOTFX

AREA AWOS OBSERVATIONS
NATIONAL WEATHER SERVICE GREAT FALLS MT
0507 AM MST Wed Feb 10 2016

METAR K6S8 101155Z AUTO 22016KT 40SM 08/M07 A3002 RMK A01 T00771066
METAR K6S8 101055Z AUTO 24011KT 40SM 07/M07 A3002 RMK A01 T00721072
METAR K7S1 101155Z AUTO 10005KT 40SM M06/M11 A3021 RMK A01 T10611105
METAR K97M 101155Z AUTO 27003KT 40SM 03/M07 A2990 RMK A01 T00331072
METAR K97M 101055Z AUTO 24012KT 40SM 05/M07 A2989 RMK A01 T00501066
METAR K9S2 101155Z AUTO 15002KT 40SM 01/M04 A2986 RMK A01 T00111044
METAR K9S5 101155Z AUTO 06000KT 15SM M06/M15 A3018 RMK A01 T10611150
METAR KRPX 101155Z AUTO 23003KT 40SM 09/M09 A2990 RMK A01 T00881094
METAR KS01 101155Z AUTO 29013KT 40SM 11/M02 A3002 RMK A01 T01111022
METAR KS34 101155Z AUTO 12000KT 0 1/4SM M02/M04 A3025 RMK A01 T10221044



USA.gov is the U.S. government's official web portal to all federal, state and local government web resources and services.